Terminal Aerodrome Forecast
Issued by NWS Lake Charles, LA

Home | Current Version | Previous Version | Text Only | Print | Product List | Glossary On
Versions: 1 2 3 4 5 6 7 8 9 10 11 12 13 14 15 16 17
666
FTUS44 KLCH 180545
TAFLFT
TAF
KLFT 180545Z 1806/1906 03007KT P6SM VCSH BKN012 OVC021
      TEMPO 1806/1810 4SM BR SCT015 OVC021
     FM181000 VRB05KT 3SM BR OVC008
      TEMPO 1810/1814 2SM BR OVC006
     FM181600 14006KT P6SM OVC011
     FM182100 17007KT P6SM OVC023
     FM190000 19005KT P6SM BKN250=

USA.gov is the U.S. government's official web portal to all federal, state and local government web resources and services.